Time;durP1;ratioP1;P1;durP2;ratioP2;P2;SDS_P1;SDS_P2;PMS_P1;PMS_P2;Temp;Humidity;BMP_temperature;BMP_pressure;BME280_temperature;BME280_humidity;BME280_pressure;Samples;Min_cycle;Max_cycle;Signal;HPM_P1;HPM_P2
2021/03/27 05:03:09;;;;;;;0.60;0.60;;;7.90;99.90;;;;;;4918256;29;20560;-63
2021/03/27 05:05:51;;;;;;;0.77;0.77;;;7.90;99.90;;;;;;4920236;29;20441;-61
2021/03/27 05:08:21;;;;;;;1.03;0.87;;;7.80;99.90;;;;;;4919014;29;20785;-61
2021/03/27 05:10:54;;;;;;;0.70;0.70;;;7.70;99.90;;;;;;4924214;29;20477;-62
2021/03/27 05:13:27;;;;;;;0.80;0.80;;;7.70;99.90;;;;;;4938172;29;20433;-64
2021/03/27 05:16:01;;;;;;;0.93;0.93;;;7.60;99.90;;;;;;4938626;29;20441;-61
2021/03/27 05:18:48;;;;;;;1.00;1.00;;;7.60;99.90;;;;;;4938108;29;20498;-62
2021/03/27 05:21:37;;;;;;;1.00;0.90;;;7.60;99.90;;;;;;4937902;29;20479;-63
2021/03/27 05:24:13;;;;;;;0.80;0.80;;;7.60;99.90;;;;;;4937728;29;20452;-62
2021/03/27 05:26:53;;;;;;;1.47;1.37;;;7.70;99.90;;;;;;4938123;29;20486;-62
2021/03/27 05:29:44;;;;;;;1.73;0.70;;;7.60;99.90;;;;;;4937628;29;20444;-63
2021/03/27 05:32:37;;;;;;;0.57;0.57;;;7.60;99.90;;;;;;4930066;29;21010;-62
2021/03/27 05:35:18;;;;;;;1.73;1.63;;;7.70;99.90;;;;;;4937172;29;20437;-62
2021/03/27 05:37:54;;;;;;;1.10;1.10;;;7.70;99.90;;;;;;4937019;29;20432;-63
2021/03/27 05:40:59;;;;;;;1.17;0.80;;;7.70;99.90;;;;;;4936869;29;20471;-63
2021/03/27 05:44:07;;;;;;;1.10;1.10;;;7.80;99.90;;;;;;4933879;29;20981;-63
2021/03/27 05:47:01;;;;;;;0.80;0.80;;;7.80;99.90;;;;;;4905313;29;20460;-62
2021/03/27 05:49:49;;;;;;;1.30;1.20;;;7.90;99.90;;;;;;4936857;29;20440;-62
2021/03/27 05:52:27;;;;;;;1.30;1.20;;;7.90;99.90;;;;;;4907811;29;21014;-63
2021/03/27 05:55:36;;;;;;;2.50;1.47;;;7.80;99.90;;;;;;4936915;29;20507;-60
2021/03/27 05:58:35;;;;;;;1.20;1.10;;;7.80;99.90;;;;;;4936796;29;20437;-61
2021/03/27 06:01:20;;;;;;;1.33;1.27;;;7.80;99.90;;;;;;4933128;29;20475;-64
2021/03/27 06:04:19;;;;;;;1.97;1.33;;;7.80;99.90;;;;;;4963359;29;20467;-63
2021/03/27 06:07:25;;;;;;;1.00;1.00;;;7.60;99.90;;;;;;4958979;29;20436;-62
2021/03/27 06:10:21;;;;;;;1.40;1.30;;;7.60;99.90;;;;;;4955946;29;20443;-62
2021/03/27 06:13:04;;;;;;;1.40;1.30;;;7.60;99.90;;;;;;4955793;29;20443;-62
2021/03/27 06:16:12;;;;;;;1.13;1.00;;;7.70;99.90;;;;;;4956074;29;20447;-62
2021/03/27 06:19:10;;;;;;;1.50;1.10;;;7.90;99.90;;;;;;4955102;29;20444;-63
2021/03/27 06:21:47;;;;;;;2.10;1.27;;;8.00;99.90;;;;;;4939618;29;21022;-62
2021/03/27 06:24:47;;;;;;;1.20;1.10;;;8.10;99.90;;;;;;4955210;29;20842;-62
2021/03/27 06:27:40;;;;;;;1.83;0.90;;;8.20;99.90;;;;;;4955324;29;20467;-63
2021/03/27 06:30:26;;;;;;;0.80;0.80;;;8.10;99.90;;;;;;4919637;29;20455;-61
2021/03/27 06:33:19;;;;;;;1.33;0.77;;;8.10;99.90;;;;;;4955221;29;20459;-62
2021/03/27 06:35:56;;;;;;;1.60;0.70;;;8.10;99.90;;;;;;4955839;29;20848;-62
2021/03/27 06:39:02;;;;;;;1.30;1.20;;;8.10;99.90;;;;;;4955295;29;20440;-61
2021/03/27 06:41:50;;;;;;;1.10;1.00;;;7.90;99.90;;;;;;4955163;29;20479;-61
2021/03/27 06:44:42;;;;;;;0.90;0.90;;;8.00;99.90;;;;;;4955969;29;20440;-62
2021/03/27 06:47:32;;;;;;;0.80;0.80;;;8.10;99.90;;;;;;4954898;29;20439;-61
2021/03/27 06:50:07;;;;;;;2.83;1.00;;;8.30;99.90;;;;;;4955050;29;20435;-62
2021/03/27 06:52:45;;;;;;;5.07;1.37;;;8.70;99.90;;;;;;4955060;29;20526;-63
2021/03/27 06:55:37;;;;;;;2.33;1.10;;;9.50;99.90;;;;;;4955312;28;20436;-62
2021/03/27 06:58:41;;;;;;;1.10;1.10;;;10.10;99.90;;;;;;4958915;29;20439;-62
2021/03/27 07:02:10;;;;;;;1.13;1.00;;;10.10;99.90;;;;;;4958599;29;20826;-62
2021/03/27 07:04:59;;;;;;;3.47;1.40;;;9.90;99.90;;;;;;4913256;29;20455;-63
2021/03/27 07:07:48;;;;;;;4.10;1.30;;;9.80;99.90;;;;;;4916599;29;20455;-62
2021/03/27 07:10:55;;;;;;;1.97;0.90;;;9.90;99.90;;;;;;4958615;29;20471;-62
2021/03/27 07:14:01;;;;;;;1.60;1.30;;;9.90;99.90;;;;;;4958650;29;20446;-62
2021/03/27 07:16:35;;;;;;;3.73;1.30;;;9.80;99.90;;;;;;4958697;29;20528;-62
2021/03/27 07:19:36;;;;;;;1.20;1.10;;;9.70;99.90;;;;;;4958344;29;20467;-62
2021/03/27 07:22:21;;;;;;;1.10;1.03;;;9.60;99.90;;;;;;4958354;29;20509;-63
2021/03/27 07:25:16;;;;;;;1.50;1.20;;;9.60;99.90;;;;;;4958126;29;20440;-62
2021/03/27 07:27:59;;;;;;;0.90;0.90;;;9.60;99.90;;;;;;4958364;29;20490;-62
2021/03/27 07:31:07;;;;;;;1.20;1.13;;;9.70;99.90;;;;;;4958236;29;20435;-62
2021/03/27 07:33:51;;;;;;;2.57;1.10;;;9.90;99.90;;;;;;4958118;29;20440;-62
2021/03/27 07:36:40;;;;;;;0.70;0.70;;;10.10;99.90;;;;;;4958007;29;20474;-63
2021/03/27 07:39:38;;;;;;;1.23;0.73;;;11.20;99.90;;;;;;4958093;29;20510;-62
2021/03/27 07:42:55;;;;;;;1.77;1.10;;;12.10;99.90;;;;;;4925186;29;20471;-61
2021/03/27 07:45:38;;;;;;;1.17;1.10;;;13.40;99.90;;;;;;4925233;29;20460;-63
2021/03/27 07:48:25;;;;;;;1.20;1.10;;;14.30;95.50;;;;;;4957924;29;20448;-62
2021/03/27 07:51:12;;;;;;;1.23;1.10;;;15.00;93.50;;;;;;4941284;29;20611;-64
2021/03/27 07:54:18;;;;;;;2.70;1.20;;;15.30;90.40;;;;;;4958341;29;20450;-61
2021/03/27 07:57:08;;;;;;;2.03;1.03;;;16.10;85.70;;;;;;4960958;29;20921;-62
2021/03/27 08:00:14;;;;;;;1.33;0.90;;;16.60;83.60;;;;;;4957806;29;20467;-63
2021/03/27 08:03:05;;;;;;;0.80;0.80;;;17.00;76.70;;;;;;4957983;29;20438;-63
2021/03/27 08:06:09;;;;;;;2.63;0.90;;;17.20;76.40;;;;;;4957774;29;20440;-63
2021/03/27 08:09:11;;;;;;;1.00;1.00;;;18.00;70.50;;;;;;4878825;29;20823;-65
2021/03/27 08:12:20;;;;;;;1.60;0.97;;;18.70;67.50;;;;;;4949121;29;20475;-63
2021/03/27 08:15:16;;;;;;;1.07;0.77;;;18.10;63.10;;;;;;4948227;29;20515;-62
2021/03/27 08:17:56;;;;;;;1.43;1.33;;;18.10;62.20;;;;;;4957825;29;20811;-63
2021/03/27 08:20:49;;;;;;;0.90;0.70;;;17.20;61.10;;;;;;4957232;29;20470;-64
2021/03/27 08:23:52;;;;;;;2.00;1.00;;;16.90;66.00;;;;;;4960087;29;20443;-64
2021/03/27 08:26:42;;;;;;;1.07;0.70;;;17.20;65.00;;;;;;4943713;29;20458;-63
2021/03/27 08:29:47;;;;;;;0.90;0.90;;;16.90;65.30;;;;;;4957915;29;20452;-63
2021/03/27 08:32:36;;;;;;;0.93;0.70;;;16.60;66.50;;;;;;4957318;29;20486;-64
2021/03/27 08:35:44;;;;;;;0.60;0.60;;;17.20;66.00;;;;;;4957342;29;20440;-63
2021/03/27 08:38:40;;;;;;;1.80;0.70;;;16.20;68.60;;;;;;4957165;29;20443;-63
2021/03/27 08:41:26;;;;;;;1.90;0.80;;;16.60;69.30;;;;;;4941252;29;20614;-63
2021/03/27 08:44:45;;;;;;;0.87;0.60;;;16.60;64.70;;;;;;4956824;29;20907;-64
2021/03/27 08:47:41;;;;;;;2.07;0.87;;;16.40;65.00;;;;;;4886167;29;20444;-63
2021/03/27 08:50:44;;;;;;;1.90;0.67;;;15.80;66.10;;;;;;4879434;29;20840;-63
2021/03/27 08:53:53;;;;;;;0.70;0.63;;;16.00;67.80;;;;;;4948949;29;20451;-63
2021/03/27 08:56:49;;;;;;;0.73;0.70;;;16.90;70.40;;;;;;4950288;29;20451;-62
2021/03/27 08:59:43;;;;;;;1.90;1.10;;;16.80;66.20;;;;;;4956517;29;20966;-64
2021/03/27 09:02:33;;;;;;;0.70;0.70;;;18.10;67.30;;;;;;4956440;29;20488;-65
2021/03/27 09:05:24;;;;;;;0.70;0.70;;;18.50;61.30;;;;;;4956739;29;20490;-66
2021/03/27 09:08:14;;;;;;;1.10;1.00;;;18.70;61.00;;;;;;4956816;29;20447;-64
2021/03/27 09:11:11;;;;;;;1.50;0.90;;;18.90;61.30;;;;;;4940275;29;20526;-62
2021/03/27 09:13:48;;;;;;;1.83;0.80;;;19.30;59.70;;;;;;4956640;29;20818;-64
2021/03/27 09:17:06;;;;;;;1.37;0.50;;;19.40;57.30;;;;;;4956371;29;20923;-63
2021/03/27 09:20:17;;;;;;;2.30;0.80;;;20.10;57.10;;;;;;4956121;28;20464;-63
2021/03/27 09:23:19;;;;;;;2.73;1.43;;;20.40;54.80;;;;;;4924600;29;20451;-63
2021/03/27 09:26:17;;;;;;;1.07;1.07;;;20.60;56.00;;;;;;4954414;29;20565;-64
2021/03/27 09:28:54;;;;;;;2.10;1.00;;;21.20;51.70;;;;;;4956956;29;20970;-63
2021/03/27 09:31:50;;;;;;;2.03;0.93;;;20.40;52.40;;;;;;4956380;29;20475;-64
2021/03/27 09:34:30;;;;;;;3.00;0.90;;;19.40;50.80;;;;;;4928314;29;20482;-63
2021/03/27 09:37:09;;;;;;;1.07;0.70;;;19.30;50.60;;;;;;4955941;29;20918;-64
2021/03/27 09:39:45;;;;;;;1.10;1.00;;;18.60;52.80;;;;;;4956451;29;20490;-64
2021/03/27 09:42:30;;;;;;;3.40;1.20;;;19.50;54.60;;;;;;4956848;29;20480;-64
2021/03/27 09:45:14;;;;;;;1.03;0.87;;;20.00;52.80;;;;;;4956346;29;20439;-63
2021/03/27 09:48:27;;;;;;;2.20;1.20;;;21.00;51.90;;;;;;4956179;29;20929;-63
2021/03/27 09:51:03;;;;;;;3.80;1.03;;;21.40;50.00;;;;;;4956081;29;20475;-64
2021/03/27 09:53:44;;;;;;;2.40;0.90;;;21.60;50.10;;;;;;4956232;29;20439;-63
2021/03/27 09:56:14;;;;;;;2.30;0.80;;;22.50;50.20;;;;;;4956138;29;20440;-63
2021/03/27 09:59:18;;;;;;;2.07;1.43;;;22.50;47.50;;;;;;4959298;29;20443;-65
2021/03/27 10:01:49;;;;;;;1.37;0.90;;;23.10;48.50;;;;;;4955613;29;20467;-63
2021/03/27 10:04:34;;;;;;;1.17;0.80;;;23.50;47.90;;;;;;4955951;29;20487;-65
2021/03/27 10:07:27;;;;;;;1.60;0.93;;;23.30;45.10;;;;;;4955751;29;20464;-64
2021/03/27 10:10:34;;;;;;;1.17;0.80;;;23.50;46.10;;;;;;4949424;29;20464;-64
2021/03/27 10:13:07;;;;;;;1.40;0.87;;;23.70;45.30;;;;;;4917213;29;20542;-63
2021/03/27 10:15:40;;;;;;;0.63;0.63;;;21.10;43.00;;;;;;4956509;29;20443;-63
2021/03/27 10:18:15;;;;;;;1.40;0.87;;;21.20;44.80;;;;;;4956386;29;20439;-63
2021/03/27 10:20:48;;;;;;;1.33;0.83;;;21.20;46.90;;;;;;4955905;29;20486;-63
2021/03/27 10:23:23;;;;;;;1.30;1.10;;;21.20;47.80;;;;;;4955976;29;20451;-63
2021/03/27 10:26:17;;;;;;;1.43;0.80;;;20.60;46.50;;;;;;4955904;29;20444;-64
2021/03/27 10:28:49;;;;;;;0.67;0.67;;;20.10;48.50;;;;;;4955958;29;20462;-64
2021/03/27 10:31:19;;;;;;;1.60;0.77;;;19.90;49.60;;;;;;4955095;29;20471;-63
2021/03/27 10:33:55;;;;;;;0.87;0.80;;;20.40;46.90;;;;;;4956862;29;20470;-64
2021/03/27 10:36:35;;;;;;;1.80;0.90;;;20.50;46.30;;;;;;4957573;29;20436;-64
2021/03/27 10:39:37;;;;;;;0.83;0.83;;;19.70;47.60;;;;;;4958755;29;20447;-64
2021/03/27 10:42:46;;;;;;;1.17;0.77;;;19.30;47.80;;;;;;4958455;29;20478;-65
2021/03/27 10:45:35;;;;;;;2.00;1.10;;;18.60;49.10;;;;;;4958117;29;20436;-64
2021/03/27 10:48:26;;;;;;;1.67;0.90;;;19.00;52.00;;;;;;4955835;29;20435;-63
2021/03/27 10:51:10;;;;;;;1.23;1.03;;;19.50;51.70;;;;;;4955761;29;20475;-64
2021/03/27 10:53:48;;;;;;;2.47;1.43;;;19.30;47.70;;;;;;4957982;29;20435;-63
2021/03/27 10:56:41;;;;;;;2.03;1.07;;;18.80;47.90;;;;;;4955933;29;20455;-64
2021/03/27 10:59:24;;;;;;;3.53;0.63;;;18.00;48.10;;;;;;4922328;29;20462;-64
2021/03/27 11:02:31;;;;;;;1.13;1.10;;;16.70;48.60;;;;;;4956264;29;20487;-64
2021/03/27 11:05:41;;;;;;;6.27;0.90;;;16.40;51.00;;;;;;4955646;29;20467;-65
2021/03/27 11:08:40;;;;;;;1.50;0.90;;;16.90;52.90;;;;;;4909664;29;20466;-64
2021/03/27 11:11:48;;;;;;;2.33;1.77;;;17.10;53.10;;;;;;4955520;29;20529;-63
2021/03/27 11:14:51;;;;;;;0.93;0.80;;;17.10;50.30;;;;;;4955447;29;20447;-65
2021/03/27 11:17:59;;;;;;;1.07;0.77;;;16.40;50.10;;;;;;4955650;29;20451;-64
2021/03/27 11:20:50;;;;;;;1.27;1.00;;;15.90;52.60;;;;;;4955523;29;20470;-64
2021/03/27 11:23:34;;;;;;;6.30;4.57;;;15.50;53.10;;;;;;4955521;29;20439;-63
2021/03/27 11:26:34;;;;;;;2.10;1.20;;;15.50;54.10;;;;;;4955630;29;20440;-63
2021/03/27 11:29:07;;;;;;;4.53;3.03;;;15.80;54.70;;;;;;4955853;29;20440;-64
2021/03/27 11:31:42;;;;;;;4.00;3.60;;;15.70;53.00;;;;;;4955713;29;20542;-65
2021/03/27 11:34:23;;;;;;;4.00;3.60;;;15.30;58.00;;;;;;4955300;29;20930;-65
2021/03/27 11:36:55;;;;;;;3.83;1.50;;;15.60;59.20;;;;;;4955073;29;20444;-65
2021/03/27 11:39:31;;;;;;;2.00;1.10;;;16.10;55.10;;;;;;4955128;29;20995;-63
2021/03/27 11:42:05;;;;;;;5.70;1.00;;;15.80;54.20;;;;;;4957021;28;20518;-65
2021/03/27 11:44:54;;;;;;;2.70;1.10;;;15.80;59.20;;;;;;4959133;29;20447;-63
2021/03/27 11:47:31;;;;;;;3.70;1.30;;;16.30;55.90;;;;;;4946770;29;20985;-63
2021/03/27 11:50:30;;;;;;;1.87;1.00;;;16.60;54.50;;;;;;4958418;29;20460;-63
2021/03/27 11:53:10;;;;;;;0.80;0.80;;;16.60;55.70;;;;;;4958552;29;20435;-64
2021/03/27 11:55:46;;;;;;;1.53;1.00;;;16.20;54.10;;;;;;4958606;29;20444;-63
2021/03/27 11:58:23;;;;;;;1.13;0.90;;;15.90;54.10;;;;;;4958589;29;20440;-63
2021/03/27 12:01:03;;;;;;;1.33;1.00;;;15.40;54.30;;;;;;4958197;29;20525;-63
2021/03/27 12:03:49;;;;;;;1.93;1.23;;;15.00;54.60;;;;;;4958575;29;20534;-64
2021/03/27 12:06:28;;;;;;;1.20;0.93;;;15.00;54.80;;;;;;4958393;29;20502;-64
2021/03/27 12:09:07;;;;;;;1.70;0.97;;;15.20;56.00;;;;;;4958173;29;20444;-63
2021/03/27 12:12:08;;;;;;;2.70;1.40;;;15.20;55.60;;;;;;4957919;29;20478;-64
2021/03/27 12:14:48;;;;;;;3.03;1.00;;;15.30;55.90;;;;;;4959427;29;20454;-63
2021/03/27 12:17:25;;;;;;;3.57;2.27;;;15.00;54.40;;;;;;4958252;29;20443;-63
2021/03/27 12:19:58;;;;;;;2.10;1.57;;;14.90;67.10;;;;;;4959341;29;20467;-63
2021/03/27 12:22:31;;;;;;;3.23;1.13;;;15.40;66.20;;;;;;4958605;29;20546;-63
2021/03/27 12:25:21;;;;;;;155.90;8.83;;;16.10;61.60;;;;;;4958860;29;20451;-62
2021/03/27 12:27:57;;;;;;;4.13;1.33;;;16.40;58.30;;;;;;4959066;29;20798;-62
2021/03/27 12:30:35;;;;;;;4.20;1.10;;;16.70;57.90;;;;;;4958025;29;20432;-63
2021/03/27 12:33:07;;;;;;;17.57;1.67;;;16.50;55.40;;;;;;4957779;29;20926;-63
2021/03/27 12:35:38;;;;;;;17.77;2.20;;;16.60;60.10;;;;;;4959292;29;20837;-65
2021/03/27 12:38:23;;;;;;;1.10;0.97;;;16.80;59.90;;;;;;4958500;29;20448;-63
2021/03/27 12:40:59;;;;;;;1.53;1.10;;;16.80;55.10;;;;;;4957660;29;20486;-64
2021/03/27 12:43:30;;;;;;;5.93;1.17;;;16.50;54.00;;;;;;4957697;29;20447;-64
2021/03/27 12:46:15;;;;;;;1.60;1.17;;;16.60;54.80;;;;;;4957648;29;20444;-64
2021/03/27 12:48:59;;;;;;;1.07;0.97;;;16.60;55.10;;;;;;4957598;29;20447;-63
2021/03/27 12:51:40;;;;;;;3.10;1.07;;;16.00;53.60;;;;;;4957463;29;20471;-64
2021/03/27 12:54:18;;;;;;;1.30;1.20;;;15.60;56.70;;;;;;4957339;28;20440;-64
2021/03/27 12:57:05;;;;;;;0.80;0.80;;;15.80;55.00;;;;;;4958612;29;20451;-64
2021/03/27 12:59:42;;;;;;;2.70;0.85;;;16.10;55.80;;;;;;4956087;29;20467;-63
2021/03/27 13:02:34;;;;;;;1.10;1.00;;;16.40;56.80;;;;;;4957902;29;20641;-66
2021/03/27 13:05:09;;;;;;;1.87;1.10;;;16.70;58.70;;;;;;4957924;29;20451;-63
2021/03/27 13:07:49;;;;;;;0.80;0.80;;;16.90;56.00;;;;;;4957474;29;20443;-63
2021/03/27 13:10:35;;;;;;;2.63;1.07;;;17.20;56.40;;;;;;4957172;29;20443;-65
2021/03/27 13:13:19;;;;;;;1.80;1.03;;;16.90;52.90;;;;;;4956948;29;20462;-63
2021/03/27 13:15:50;;;;;;;1.60;0.80;;;17.10;55.90;;;;;;4956994;29;20447;-64
2021/03/27 13:18:27;;;;;;;2.30;1.23;;;17.10;55.90;;;;;;4956935;29;20440;-64
2021/03/27 13:21:08;;;;;;;5.83;1.10;;;17.30;55.20;;;;;;4956716;29;20483;-65
2021/03/27 13:23:40;;;;;;;1.03;0.93;;;17.50;54.60;;;;;;4956920;29;20530;-62
2021/03/27 13:26:12;;;;;;;1.43;0.80;;;17.40;54.20;;;;;;4956940;29;20444;-64
2021/03/27 13:28:44;;;;;;;1.80;1.00;;;17.10;53.00;;;;;;4959511;29;20541;-63
2021/03/27 13:31:14;;;;;;;1.90;1.03;;;16.70;54.30;;;;;;4960222;29;20494;-63
2021/03/27 13:33:46;;;;;;;1.67;0.87;;;17.10;54.70;;;;;;4957393;29;20479;-65
2021/03/27 13:36:26;;;;;;;2.60;1.30;;;17.20;53.00;;;;;;4956788;29;20454;-63
2021/03/27 13:39:15;;;;;;;4.50;1.03;;;16.90;53.10;;;;;;4956549;29;20443;-62
2021/03/27 13:42:04;;;;;;;1.80;1.00;;;16.60;52.50;;;;;;4949696;29;20550;-64
2021/03/27 13:44:42;;;;;;;1.60;1.00;;;15.90;52.10;;;;;;4956657;29;20448;-64
2021/03/27 13:47:15;;;;;;;3.27;1.53;;;15.60;54.80;;;;;;4956354;29;20440;-64
2021/03/27 13:49:45;;;;;;;4.60;1.17;;;15.70;53.70;;;;;;4956345;29;20436;-64
2021/03/27 13:52:24;;;;;;;4.10;1.37;;;15.80;55.00;;;;;;4956140;29;20530;-64
2021/03/27 13:54:54;;;;;;;2.50;1.10;;;15.90;55.70;;;;;;4956346;29;20444;-63
2021/03/27 13:57:30;;;;;;;6.67;1.33;;;16.00;55.20;;;;;;4960186;29;20443;-64
2021/03/27 14:00:10;;;;;;;1.27;0.90;;;16.00;54.40;;;;;;4959288;29;20468;-64
2021/03/27 14:02:51;;;;;;;1.50;1.30;;;15.90;58.00;;;;;;4956365;29;20518;-64
2021/03/27 14:05:30;;;;;;;1.50;1.37;;;15.70;54.70;;;;;;4956363;28;20502;-64
2021/03/27 14:08:05;;;;;;;1.37;1.13;;;15.60;54.50;;;;;;4956667;29;20538;-64
2021/03/27 14:10:37;;;;;;;3.20;1.13;;;14.90;52.70;;;;;;4956983;29;20506;-64
2021/03/27 14:13:13;;;;;;;2.40;1.17;;;14.30;53.20;;;;;;4956304;29;20502;-65
2021/03/27 14:15:43;;;;;;;1.93;1.13;;;14.10;53.70;;;;;;4956095;29;20613;-64
2021/03/27 14:18:34;;;;;;;1.43;1.33;;;13.70;54.00;;;;;;4955808;29;20439;-63
2021/03/27 14:21:13;;;;;;;1.33;1.07;;;13.50;55.00;;;;;;4956101;29;20484;-64
2021/03/27 14:24:00;;;;;;;3.23;1.00;;;13.40;56.30;;;;;;4956066;29;20443;-63
2021/03/27 14:26:31;;;;;;;2.37;1.27;;;13.20;56.10;;;;;;4956031;29;20460;-64
2021/03/27 14:29:05;;;;;;;2.53;1.33;;;13.10;57.00;;;;;;4955870;29;20448;-63
2021/03/27 14:31:41;;;;;;;1.77;1.07;;;13.00;57.90;;;;;;4956267;29;20859;-63
2021/03/27 14:34:40;;;;;;;2.50;0.90;;;12.90;58.20;;;;;;4955805;29;20495;-64
2021/03/27 14:37:17;;;;;;;1.70;0.97;;;12.80;57.20;;;;;;4955505;29;20450;-63
2021/03/27 14:39:54;;;;;;;2.43;1.50;;;12.70;57.80;;;;;;4955626;29;20446;-64
2021/03/27 14:42:35;;;;;;;1.23;1.13;;;13.00;57.60;;;;;;4956486;29;20478;-65
2021/03/27 14:45:12;;;;;;;2.33;1.10;;;13.30;57.60;;;;;;4955665;29;20511;-65
2021/03/27 14:48:15;;;;;;;6.63;2.47;;;13.40;57.40;;;;;;4955419;29;20461;-64
2021/03/27 14:50:57;;;;;;;1.53;0.80;;;13.40;57.40;;;;;;4955045;29;20989;-66
2021/03/27 14:53:31;;;;;;;3.37;1.20;;;13.50;57.20;;;;;;4955987;29;20444;-62
2021/03/27 14:56:05;;;;;;;3.53;0.93;;;13.60;56.70;;;;;;4955561;29;20440;-61
2021/03/27 14:58:41;;;;;;;2.93;1.10;;;13.70;56.50;;;;;;4955462;29;20440;-64
2021/03/27 15:01:12;;;;;;;3.50;1.40;;;13.80;57.30;;;;;;4955007;29;20493;-65
2021/03/27 15:03:53;;;;;;;3.50;1.40;;;14.00;56.50;;;;;;4955524;29;20439;-63
2021/03/27 15:06:30;;;;;;;1.40;1.13;;;14.20;58.50;;;;;;4955542;29;20451;-63
2021/03/27 15:09:02;;;;;;;1.67;1.40;;;14.00;55.90;;;;;;4955313;29;20802;-65
2021/03/27 15:11:36;;;;;;;1.50;1.40;;;13.80;56.10;;;;;;4955181;29;20867;-65
2021/03/27 15:14:12;;;;;;;1.50;1.27;;;13.60;57.30;;;;;;4955298;29;20553;-64
2021/03/27 15:16:42;;;;;;;2.67;1.20;;;13.60;57.80;;;;;;4956377;28;20810;-63
2021/03/27 15:19:26;;;;;;;1.80;1.10;;;14.00;59.10;;;;;;4958740;29;20463;-61
2021/03/27 15:22:12;;;;;;;1.57;1.17;;;14.30;58.90;;;;;;4955869;29;20522;-63
2021/03/27 15:27:36;;;;;;;3.13;1.10;;;14.70;55.90;;;;;;4957514;29;20424;-63
2021/03/27 15:30:08;;;;;;;3.27;1.57;;;14.70;57.60;;;;;;4958489;29;20438;-63
2021/03/27 15:32:44;;;;;;;1.20;1.00;;;14.80;58.10;;;;;;4958283;29;20486;-63
2021/03/27 15:35:19;;;;;;;3.33;1.33;;;14.60;56.90;;;;;;4958377;29;20463;-65
2021/03/27 15:37:54;;;;;;;2.77;1.13;;;14.30;57.00;;;;;;4958516;29;20435;-62
2021/03/27 15:40:25;;;;;;;2.03;1.10;;;14.30;56.70;;;;;;4958565;29;20770;-66
2021/03/27 15:42:53;;;;;;;2.60;1.37;;;14.00;55.90;;;;;;4959019;29;20444;-67
2021/03/27 15:45:51;;;;;;;1.63;1.20;;;13.90;56.80;;;;;;4958911;29;20497;-70
2021/03/27 15:48:38;;;;;;;1.23;0.87;;;13.60;57.40;;;;;;4958744;29;20938;-69
2021/03/27 15:51:14;;;;;;;4.40;1.10;;;13.30;56.10;;;;;;4959152;29;20825;-68
2021/03/27 15:53:52;;;;;;;2.80;0.90;;;13.20;58.80;;;;;;4958394;29;20444;-68
2021/03/27 15:56:26;;;;;;;2.70;1.23;;;13.20;57.80;;;;;;4958305;29;20449;-69
2021/03/27 15:59:35;;;;;;;4.90;1.20;;;13.20;58.30;;;;;;4958686;29;20459;-69
2021/03/27 16:02:15;;;;;;;2.77;0.90;;;13.20;58.50;;;;;;4957727;29;20506;-69
2021/03/27 16:04:46;;;;;;;3.30;1.23;;;13.00;58.50;;;;;;4958180;29;20981;-68
2021/03/27 16:07:16;;;;;;;2.10;1.20;;;12.80;57.70;;;;;;4958839;29;20444;-67
2021/03/27 16:09:55;;;;;;;4.10;1.17;;;12.80;59.70;;;;;;4957697;29;20456;-68
2021/03/27 16:12:30;;;;;;;6.07;1.30;;;12.60;59.30;;;;;;4958034;29;20471;-68
2021/03/27 16:15:18;;;;;;;3.03;1.40;;;12.60;60.20;;;;;;4958094;29;20435;-67
2021/03/27 16:17:55;;;;;;;2.63;0.80;;;12.60;60.30;;;;;;4957834;29;20440;-67
2021/03/27 16:20:43;;;;;;;3.77;1.20;;;12.60;59.30;;;;;;4957656;29;20463;-67
2021/03/27 16:23:31;;;;;;;2.03;1.13;;;12.30;58.80;;;;;;4958112;29;20458;-67
2021/03/27 16:26:26;;;;;;;3.53;1.23;;;12.20;58.70;;;;;;4958199;29;20443;-68
2021/03/27 16:28:58;;;;;;;3.63;1.47;;;12.20;60.00;;;;;;4956315;28;20459;-68
2021/03/27 16:31:43;;;;;;;2.27;1.20;;;12.10;59.10;;;;;;4957740;29;20472;-68
2021/03/27 16:34:29;;;;;;;1.30;1.00;;;12.10;59.80;;;;;;4957694;29;20447;-67
2021/03/27 16:37:01;;;;;;;4.60;1.50;;;12.00;59.10;;;;;;4957747;29;20527;-68
2021/03/27 16:39:42;;;;;;;2.70;1.20;;;11.90;58.90;;;;;;4957644;29;20858;-68
2021/03/27 16:42:47;;;;;;;1.93;1.33;;;11.80;59.40;;;;;;4957624;29;20475;-69
2021/03/27 16:45:21;;;;;;;2.10;1.10;;;11.70;59.20;;;;;;4934810;29;20833;-68
2021/03/27 16:47:53;;;;;;;1.80;1.17;;;11.70;60.50;;;;;;4956954;29;20435;-68
2021/03/27 16:50:56;;;;;;;3.07;1.77;;;11.70;60.20;;;;;;4956864;29;20842;-67
2021/03/27 16:53:33;;;;;;;5.43;2.23;;;11.70;60.60;;;;;;4953896;29;20458;-69
2021/03/27 16:56:21;;;;;;;3.77;1.77;;;11.60;60.30;;;;;;4957207;29;20444;-67
2021/03/27 16:59:08;;;;;;;2.03;1.10;;;11.60;61.00;;;;;;4954382;29;20468;-66
2021/03/27 17:01:43;;;;;;;3.30;1.17;;;11.70;62.20;;;;;;4956614;29;20542;-69
2021/03/27 17:04:19;;;;;;;3.00;1.57;;;11.70;62.30;;;;;;4957035;29;20455;-69
2021/03/27 17:06:56;;;;;;;4.57;1.57;;;11.70;61.60;;;;;;4956904;29;20494;-67
2021/03/27 17:09:29;;;;;;;2.83;1.40;;;11.60;60.60;;;;;;4956977;29;20443;-68
2021/03/27 17:12:14;;;;;;;6.33;1.53;;;11.50;59.70;;;;;;4956849;29;20472;-68
2021/03/27 17:14:54;;;;;;;2.40;1.53;;;11.50;59.70;;;;;;4956987;29;20531;-69
2021/03/27 17:17:29;;;;;;;3.07;1.77;;;11.40;60.70;;;;;;4957712;29;20802;-69
2021/03/27 17:20:06;;;;;;;8.63;1.90;;;11.40;60.20;;;;;;4956918;29;20444;-68
2021/03/27 17:22:45;;;;;;;8.03;1.60;;;11.30;59.80;;;;;;4956410;29;20993;-68
2021/03/27 17:25:18;;;;;;;6.93;1.50;;;11.30;61.10;;;;;;4956713;29;20446;-68
2021/03/27 17:28:03;;;;;;;6.53;1.73;;;11.30;61.90;;;;;;4956642;29;20440;-69
2021/03/27 17:30:32;;;;;;;5.23;1.60;;;11.20;61.70;;;;;;4956307;29;20467;-69
2021/03/27 17:33:28;;;;;;;3.70;1.30;;;11.20;62.60;;;;;;4956451;29;20462;-68
2021/03/27 17:35:59;;;;;;;3.83;1.63;;;11.00;62.20;;;;;;4956017;29;20915;-69
2021/03/27 17:38:32;;;;;;;4.33;1.80;;;11.00;62.60;;;;;;4956243;29;20932;-69
2021/03/27 17:41:13;;;;;;;3.90;1.30;;;10.90;62.30;;;;;;4956383;28;20846;-70
2021/03/27 17:43:48;;;;;;;3.83;1.73;;;10.90;62.60;;;;;;4956268;29;20911;-69
2021/03/27 17:46:22;;;;;;;3.17;1.50;;;10.80;64.10;;;;;;4956762;29;20471;-70
2021/03/27 17:49:05;;;;;;;5.07;2.93;;;10.80;64.20;;;;;;4956496;29;20552;-70
2021/03/27 17:51:38;;;;;;;7.00;1.63;;;10.70;64.00;;;;;;4956351;29;20472;-69
2021/03/27 17:54:14;;;;;;;3.50;2.20;;;10.70;63.60;;;;;;4957070;29;20451;-69
2021/03/27 17:56:44;;;;;;;14.10;9.70;;;10.70;65.30;;;;;;4956255;29;20450;-71
2021/03/27 17:59:20;;;;;;;3.20;1.80;;;10.80;65.90;;;;;;4956350;29;20511;-69
2021/03/27 18:01:52;;;;;;;5.87;1.53;;;10.80;65.70;;;;;;4956020;29;20490;-70
2021/03/27 18:04:26;;;;;;;2.10;1.77;;;10.80;65.50;;;;;;4956495;29;20451;-69
2021/03/27 18:07:03;;;;;;;1.73;1.40;;;10.70;66.30;;;;;;4956796;29;20450;-69
2021/03/27 18:09:30;;;;;;;7.20;1.80;;;10.70;66.20;;;;;;4957717;29;20451;-71
2021/03/27 18:12:03;;;;;;;6.33;1.87;;;10.60;66.50;;;;;;4956840;29;20475;-69
2021/03/27 18:14:49;;;;;;;3.73;1.60;;;10.50;66.50;;;;;;4957219;29;20448;-69
2021/03/27 18:17:26;;;;;;;4.30;1.40;;;10.30;66.40;;;;;;4957309;29;20443;-69
2021/03/27 18:19:58;;;;;;;2.87;1.70;;;10.30;66.60;;;;;;4956076;29;20957;-71
2021/03/27 18:22:33;;;;;;;3.40;1.77;;;10.20;66.50;;;;;;4956963;29;20480;-70
2021/03/27 18:25:22;;;;;;;5.17;1.80;;;10.20;67.00;;;;;;4956501;29;20435;-69
2021/03/27 18:28:16;;;;;;;9.70;2.10;;;10.10;66.80;;;;;;4956312;29;20447;-68
2021/03/27 18:30:56;;;;;;;4.00;2.33;;;10.10;67.70;;;;;;4956105;29;20471;-69
2021/03/27 18:33:30;;;;;;;3.67;1.90;;;10.10;68.00;;;;;;4956798;29;20439;-69
2021/03/27 18:36:11;;;;;;;3.07;1.70;;;10.10;67.90;;;;;;4956209;29;20885;-69
2021/03/27 18:39:12;;;;;;;3.20;1.60;;;10.20;69.60;;;;;;4957620;29;20907;-68
2021/03/27 18:41:46;;;;;;;4.13;1.80;;;10.20;69.50;;;;;;4956208;29;20985;-69
2021/03/27 18:44:17;;;;;;;2.60;1.30;;;10.30;69.10;;;;;;4956543;29;20831;-69
2021/03/27 18:46:47;;;;;;;2.50;1.37;;;10.20;68.70;;;;;;4956279;29;20451;-68
2021/03/27 18:49:15;;;;;;;3.80;1.67;;;10.30;68.70;;;;;;4959573;29;20483;-68
2021/03/27 18:51:45;;;;;;;4.20;1.87;;;10.30;70.20;;;;;;4957206;28;20970;-69
2021/03/27 18:54:16;;;;;;;5.63;1.77;;;10.30;70.30;;;;;;4960285;29;20458;-69
2021/03/27 18:56:46;;;;;;;6.10;2.00;;;10.30;69.50;;;;;;4959817;29;20440;-68
2021/03/27 18:59:22;;;;;;;5.60;2.40;;;10.30;69.70;;;;;;4959507;29;20799;-67
2021/03/27 19:01:59;;;;;;;3.80;1.93;;;10.30;70.30;;;;;;4959136;29;20483;-69
2021/03/27 19:04:30;;;;;;;5.53;2.20;;;10.30;70.60;;;;;;4959433;29;20436;-68
2021/03/27 19:07:01;;;;;;;4.37;1.77;;;10.30;71.90;;;;;;4959244;29;20982;-67
2021/03/27 19:09:42;;;;;;;2.23;1.80;;;10.40;70.20;;;;;;4959392;29;20804;-68
2021/03/27 19:12:13;;;;;;;2.10;1.80;;;10.40;70.50;;;;;;4959095;29;20471;-67
2021/03/27 19:14:53;;;;;;;5.67;2.00;;;10.40;70.60;;;;;;4959163;29;20448;-68
2021/03/27 19:17:24;;;;;;;3.60;2.23;;;10.40;71.30;;;;;;4958833;29;20450;-67
2021/03/27 19:19:54;;;;;;;3.53;1.73;;;10.40;72.80;;;;;;4958866;29;20440;-67